Carbondale, Kentucky
Current Conditions -  °F | °C
As of 2:55 PM on Tuesday 21 Oct 2014 (Local Time) from K2I0 Reporting Station
Broken Clouds Broken Clouds  
Wind Chill: 69°   Ceiling: 4900
Heat Index: 69°   Visibility: 10mi
Dew Point: 46°   Wind: 10mph
Humidity: 43%   Direction: 20°NNE
Pressure: 30.06"   Gusts: NA
Location:  37.196°N, 87.6728°W
Report Text: K2I0 211955Z AUTO 02009KT 10SM BKN049 21/08 A3006 RMK AO2 T02060077
Loading
Personal Weather Stations






























Interactive Weather Map
Tropical Storm Tracking
New forecast layout! Learn more

10-Day Weather Forecast

Advertisements
Track Severe Weather on mobile